Date,TemperatureHighF,TemperatureAvgF,TemperatureLowF,DewpointHighF,DewpointAvgF,DewpointLowF,HumidityHigh,HumidityAvg,HumidityLow,PressureMaxIn,PressureMinIn,WindSpeedMaxMPH,WindSpeedAvgMPH,GustSpeedMaxMPH,PrecipitationSumIn
2013-7-1,90,79,67,71,68,65,97,71,46,29.91,29.79,6,1,13,0.00
2013-7-2,91,79,67,72,67,64,97,71,42,29.98,29.85,6,1,12,0.00
2013-7-3,92,79,68,72,68,64,95,71,42,30.01,29.85,7,2,13,0.00
2013-7-4,93,81,69,75,70,66,97,73,42,29.97,29.83,6,1,13,0.00
2013-7-5,91,79,69,76,74,68,98,86,58,29.96,29.85,9,1,24,1.39
2013-7-6,87,75,70,78,72,69,98,92,72,29.97,29.87,14,1,23,0.01
2013-7-7,87,79,75,79,76,74,98,92,72,30.05,29.94,6,1,10,1.25
2013-7-8,93,79,72,78,73,-100,98,88,59,30.13,29.97,6,1,10,0.03
2013-7-9,93,83,74,79,76,73,98,81,55,30.14,29.97,5,0,9,0.03
2013-7-10,95,83,75,79,73,-100,98,77,52,30.08,29.87,2,0,7,0.00
2013-7-11,94,81,74,78,76,73,98,85,54,29.99,29.84,9,1,17,0.62
2013-7-12,96,82,73,80,75,72,98,81,47,29.94,29.76,4,1,9,0.12
2013-7-13,94,82,71,74,70,63,92,69,39,29.93,29.79,6,1,10,0.00
2013-7-14,92,80,71,78,73,69,96,82,50,29.95,29.84,6,1,12,0.00
2013-7-15,88,77,73,79,74,72,97,91,71,30.09,29.95,6,1,12,0.21
2013-7-16,88,79,74,78,75,72,97,88,68,30.13,30.01,7,2,14,0.08
2013-7-17,91,82,75,78,76,73,97,83,61,30.17,30.03,6,1,22,0.01
2013-7-18,92,80,72,77,74,71,98,82,60,30.13,29.94,6,1,13,0.01
2013-7-19,95,79,71,77,74,70,98,85,50,30.05,29.88,10,1,18,0.10
2013-7-20,91,80,73,76,72,-100,98,82,59,29.97,29.84,6,0,10,0.10
2013-7-21,87,79,74,77,75,73,98,86,70,30.01,29.88,5,1,9,0.03
2013-7-22,93,84,77,81,78,75,96,84,62,30.01,29.91,4,1,10,0.04
2013-7-23,93,84,76,79,76,74,97,80,56,30.01,29.84,3,1,9,0.04
2013-7-24,93,84,76,78,76,73,97,79,54,29.98,29.79,5,1,12,0.00
2013-7-25,95,84,76,78,75,74,95,78,52,30.01,29.91,7,1,9,0.00
2013-7-26,95,83,74,79,76,73,98,81,55,30.04,29.86,2,0,12,0.00
2013-7-27,90,82,78,79,77,75,96,88,63,29.94,29.80,6,1,15,0.04
2013-7-28,92,82,74,78,76,73,97,83,60,29.98,29.85,4,1,8,0.01
2013-7-29,97,84,75,80,75,69,98,78,42,30.07,29.95,5,0,9,0.00
2013-7-30,95,84,74,79,76,73,98,77,52,30.11,29.95,3,0,7,0.00
2013-7-31,97,84,74,78,76,73,97,78,50,30.07,29.86,3,0,9,0.00